createdAt,value
2023-02-14T00:01:51.311Z,9.60
2023-02-14T00:04:19.984Z,9.90
2023-02-14T00:06:48.182Z,9.90
2023-02-14T00:09:19.538Z,10.00
2023-02-14T00:11:49.167Z,8.50
2023-02-14T00:14:36.628Z,9.30
2023-02-14T00:17:04.969Z,8.90
2023-02-14T00:19:36.085Z,9.70
2023-02-14T00:22:04.832Z,9.00
2023-02-14T00:24:33.848Z,9.50
2023-02-14T00:27:01.975Z,9.30
2023-02-14T00:29:31.059Z,8.80
2023-02-14T00:31:59.543Z,9.50
2023-02-14T00:34:28.266Z,9.10
2023-02-14T00:36:59.188Z,9.20
2023-02-14T00:39:27.464Z,9.40
2023-02-14T00:41:55.964Z,9.80
2023-02-14T00:44:25.347Z,10.20
2023-02-14T00:46:53.625Z,9.70
2023-02-14T00:49:25.279Z,8.30
2023-02-14T00:51:53.807Z,8.80
2023-02-14T00:54:22.727Z,9.50
2023-02-14T00:56:52.458Z,9.30
2023-02-14T00:59:20.776Z,9.10
2023-02-14T01:01:49.661Z,9.70
2023-02-14T01:04:17.908Z,9.50
2023-02-14T01:06:48.025Z,9.70
2023-02-14T01:09:16.224Z,9.00
2023-02-14T01:11:44.756Z,9.20
2023-02-14T01:14:13.302Z,9.50
2023-02-14T01:16:44.807Z,8.60
2023-02-14T01:19:13.526Z,8.50
2023-02-14T01:21:45.113Z,8.70
2023-02-14T01:24:13.538Z,8.50
2023-02-14T01:26:44.826Z,8.60
2023-02-14T01:29:12.950Z,8.50
2023-02-14T01:31:41.317Z,9.20
2023-02-14T01:34:10.157Z,8.70
2023-02-14T01:36:41.352Z,8.00
2023-02-14T01:39:14.087Z,8.70
2023-02-14T01:41:43.440Z,8.60
2023-02-14T01:44:14.770Z,8.90
2023-02-14T01:46:43.531Z,8.20
2023-02-14T01:49:19.174Z,10.40
2023-02-14T01:51:48.972Z,10.90
2023-02-14T01:54:17.265Z,8.80
2023-02-14T01:56:47.159Z,9.30
2023-02-14T01:59:16.673Z,10.20
2023-02-14T02:01:45.362Z,11.00
2023-02-14T02:04:15.118Z,11.20
2023-02-14T02:06:47.850Z,11.40
2023-02-14T02:09:16.068Z,12.00
2023-02-14T02:11:45.274Z,11.70
2023-02-14T02:14:17.915Z,12.10
2023-02-14T02:16:49.485Z,11.70
2023-02-14T02:19:30.208Z,11.50
2023-02-14T02:22:05.022Z,9.90
2023-02-14T02:28:11.907Z,11.90
2023-02-14T02:30:41.474Z,12.30
2023-02-14T02:33:18.535Z,12.60
2023-02-14T02:36:05.582Z,13.00
2023-02-14T02:38:47.822Z,12.10
2023-02-14T02:41:36.222Z,13.80
2023-02-14T02:44:12.234Z,13.20
2023-02-14T02:46:50.063Z,13.40
2023-02-14T02:49:46.570Z,15.40
2023-02-14T02:52:35.548Z,16.10
2023-02-14T02:55:05.124Z,15.20
2023-02-14T02:57:35.180Z,15.20
2023-02-14T03:00:05.885Z,16.00
2023-02-14T03:02:55.809Z,15.40
2023-02-14T03:05:23.931Z,14.40
2023-02-14T03:07:52.719Z,16.00
2023-02-14T03:10:22.147Z,16.70
2023-02-14T03:13:09.546Z,17.50
2023-02-14T03:15:47.174Z,18.40
2023-02-14T03:18:23.763Z,18.10
2023-02-14T03:21:21.479Z,18.40
2023-02-14T03:23:49.764Z,17.60
2023-02-14T03:26:20.223Z,18.80
2023-02-14T03:28:51.766Z,18.30
2023-02-14T03:31:35.527Z,19.50
2023-02-14T03:34:08.593Z,18.10
2023-02-14T03:36:40.020Z,17.50
2023-02-14T03:39:10.985Z,15.50
2023-02-14T03:41:44.896Z,15.40
2023-02-14T03:44:13.981Z,15.50
2023-02-14T03:47:08.574Z,15.80
2023-02-14T03:49:37.614Z,12.10
2023-02-14T03:52:05.808Z,13.60
2023-02-14T03:54:34.508Z,13.80
2023-02-14T03:57:06.133Z,11.90
2023-02-14T03:59:34.530Z,13.70
2023-02-14T04:02:03.203Z,13.40
2023-02-14T04:04:32.731Z,13.50
2023-02-14T04:07:07.756Z,12.70
2023-02-14T04:09:35.920Z,14.30
2023-02-14T04:12:06.926Z,13.20
2023-02-14T04:14:37.024Z,13.30
2023-02-14T04:17:24.087Z,10.80
2023-02-14T04:19:52.352Z,12.00
2023-02-14T04:22:20.593Z,11.80
2023-02-14T04:24:48.985Z,11.00
2023-02-14T04:27:17.354Z,11.40
2023-02-14T04:29:47.535Z,11.00
2023-02-14T04:32:20.126Z,10.10
2023-02-14T04:34:49.338Z,9.90
2023-02-14T04:37:18.098Z,9.90
2023-02-14T04:39:46.331Z,11.00
2023-02-14T04:42:14.809Z,10.30
2023-02-14T04:44:43.322Z,10.00
2023-02-14T04:47:11.748Z,10.60
2023-02-14T04:49:40.888Z,10.00
2023-02-14T04:52:09.145Z,10.50
2023-02-14T04:54:37.408Z,10.70
2023-02-14T04:57:05.617Z,9.90
2023-02-14T04:59:34.190Z,9.60
2023-02-14T05:02:03.193Z,9.90
2023-02-14T05:04:31.873Z,9.40
2023-02-14T05:07:00.287Z,9.70
2023-02-14T05:09:33.874Z,8.30
2023-02-14T05:12:02.715Z,10.00
2023-02-14T05:14:31.206Z,10.10
2023-02-14T05:16:59.705Z,10.30
2023-02-14T05:19:28.118Z,10.70
2023-02-14T05:21:56.365Z,9.30
2023-02-14T05:24:25.879Z,10.30
2023-02-14T05:26:54.718Z,9.30
2023-02-14T05:29:24.786Z,9.00
2023-02-14T05:31:53.770Z,8.80
2023-02-14T05:34:22.391Z,9.90
2023-02-14T05:36:50.565Z,8.70
2023-02-14T05:39:18.976Z,9.40
2023-02-14T05:41:47.071Z,9.60
2023-02-14T05:44:15.910Z,8.20
2023-02-14T05:46:44.189Z,8.60
2023-02-14T05:49:12.815Z,8.10
2023-02-14T05:51:41.068Z,7.70
2023-02-14T05:54:10.999Z,7.80
2023-02-14T05:56:39.692Z,8.50
2023-02-14T05:59:08.197Z,8.40
2023-02-14T06:01:36.361Z,8.10
2023-02-14T06:04:04.715Z,8.70
2023-02-14T06:06:34.630Z,8.00
2023-02-14T06:09:04.864Z,8.10
2023-02-14T06:11:33.046Z,8.20
2023-02-14T06:14:01.757Z,9.30
2023-02-14T06:16:30.247Z,9.60
2023-02-14T06:18:58.935Z,9.50
2023-02-14T06:21:27.867Z,7.90
2023-02-14T06:23:56.201Z,7.80
2023-02-14T06:26:28.304Z,8.40
2023-02-14T06:28:57.608Z,8.00
2023-02-14T06:31:26.408Z,8.40
2023-02-14T06:33:54.964Z,7.50
2023-02-14T06:36:23.800Z,8.60
2023-02-14T06:38:51.912Z,8.00
2023-02-14T06:41:20.040Z,6.60
2023-02-14T06:43:48.874Z,7.70
2023-02-14T06:46:18.104Z,7.10
2023-02-14T06:48:46.610Z,7.20
2023-02-14T06:51:15.488Z,6.60
2023-02-14T06:53:43.915Z,6.60
2023-02-14T06:56:12.192Z,7.40
2023-02-14T06:58:40.821Z,10.30
2023-02-14T07:01:09.089Z,9.60
2023-02-14T07:03:37.484Z,6.50
2023-02-14T07:06:06.239Z,6.00
2023-02-14T07:08:34.510Z,5.50
2023-02-14T07:11:03.362Z,6.00
2023-02-14T07:13:31.769Z,6.30
2023-02-14T07:16:00.677Z,5.30
2023-02-14T07:18:29.287Z,5.20
2023-02-14T07:20:57.416Z,5.20
2023-02-14T07:23:26.268Z,5.30
2023-02-14T07:25:55.412Z,5.60
2023-02-14T07:28:23.849Z,5.80
2023-02-14T07:30:52.062Z,4.80
2023-02-14T07:33:20.573Z,5.80
2023-02-14T07:35:49.364Z,6.50
2023-02-14T07:38:17.462Z,5.90
2023-02-14T07:40:46.032Z,5.80
2023-02-14T07:43:14.246Z,5.50
2023-02-14T07:45:44.184Z,5.70
2023-02-14T07:48:12.626Z,5.30
2023-02-14T07:50:41.137Z,5.10
2023-02-14T07:53:09.447Z,5.00
2023-02-14T07:55:38.126Z,4.80
2023-02-14T07:58:06.790Z,6.70
2023-02-14T08:00:35.661Z,10.70
2023-02-14T08:03:06.986Z,5.60
2023-02-14T08:05:36.008Z,5.80
2023-02-14T08:08:04.264Z,8.00
2023-02-14T08:10:34.269Z,23.30
2023-02-14T08:13:03.749Z,16.00
2023-02-14T08:15:51.372Z,25.30
2023-02-14T08:18:21.275Z,38.50
2023-02-14T08:20:50.107Z,8.30
2023-02-14T08:23:18.966Z,5.40
2023-02-14T08:25:48.348Z,5.50
2023-02-14T08:28:17.338Z,4.70
2023-02-14T08:30:46.753Z,5.50
2023-02-14T08:33:14.948Z,4.80
2023-02-14T08:35:43.121Z,11.00
2023-02-14T08:38:13.450Z,16.60
2023-02-14T08:40:42.191Z,9.70
2023-02-14T08:43:10.314Z,18.30
2023-02-14T08:45:38.877Z,9.90
2023-02-14T08:48:09.066Z,11.20
2023-02-14T08:50:38.813Z,8.70
2023-02-14T08:53:10.663Z,11.00
2023-02-14T08:55:39.897Z,10.20
2023-02-14T08:58:08.813Z,8.50
2023-02-14T09:00:37.389Z,16.60
2023-02-14T09:03:06.800Z,13.00
2023-02-14T09:05:35.300Z,7.30
2023-02-14T09:08:03.494Z,18.60
2023-02-14T09:10:36.880Z,13.40
2023-02-14T09:13:05.159Z,14.60
2023-02-14T09:15:33.296Z,14.40
2023-02-14T09:18:01.800Z,11.50
2023-02-14T09:20:30.773Z,7.80
2023-02-14T09:22:59.097Z,15.40
2023-02-14T09:25:29.611Z,9.10
2023-02-14T09:27:59.132Z,6.20
2023-02-14T09:30:27.360Z,5.20
2023-02-14T09:32:55.675Z,3.90
2023-02-14T09:35:23.917Z,3.80
2023-02-14T09:37:55.334Z,5.70
2023-02-14T09:40:26.787Z,16.50
2023-02-14T09:43:19.342Z,6.00
2023-02-14T09:45:56.888Z,4.80
2023-02-14T09:48:28.350Z,10.50
2023-02-14T09:50:59.478Z,10.00
2023-02-14T09:53:29.064Z,51.30
2023-02-14T09:56:10.918Z,31.70
2023-02-14T09:58:44.347Z,7.40
2023-02-14T10:01:17.381Z,6.90
2023-02-14T10:03:51.823Z,6.20
2023-02-14T10:06:32.093Z,6.00
2023-02-14T10:09:03.559Z,5.70
2023-02-14T10:11:31.783Z,6.40
2023-02-14T10:14:01.881Z,5.80
2023-02-14T10:17:09.173Z,29.50
2023-02-14T10:19:42.606Z,8.50
2023-02-14T10:22:13.266Z,17.10
2023-02-14T10:24:47.821Z,7.60
2023-02-14T10:27:29.972Z,5.30
2023-02-14T10:29:58.433Z,3.80
2023-02-14T10:32:31.275Z,5.30
2023-02-14T10:35:00.851Z,5.60
2023-02-14T10:37:29.846Z,9.60
2023-02-14T10:40:00.986Z,4.90
2023-02-14T10:42:44.600Z,4.80
2023-02-14T10:45:32.360Z,4.10
2023-02-14T10:48:19.648Z,4.40
2023-02-14T10:51:20.577Z,11.60
2023-02-14T10:54:09.296Z,11.50
2023-02-14T10:56:41.328Z,3.80
2023-02-14T10:59:38.584Z,5.40
2023-02-14T11:02:06.883Z,6.90
2023-02-14T11:04:35.346Z,6.10
2023-02-14T11:07:03.584Z,2.20
2023-02-14T11:09:33.932Z,2.10
2023-02-14T11:12:02.019Z,5.20
2023-02-14T11:14:35.911Z,4.90
2023-02-14T11:17:24.329Z,2.90
2023-02-14T11:19:57.095Z,3.00
2023-02-14T11:22:30.046Z,6.70
2023-02-14T11:25:04.998Z,3.20
2023-02-14T11:27:33.678Z,2.80
2023-02-14T11:30:02.311Z,1.90
2023-02-14T11:32:30.828Z,1.50
2023-02-14T11:35:03.845Z,2.30
2023-02-14T11:37:34.606Z,2.10
2023-02-14T11:40:04.033Z,2.60
2023-02-14T11:42:33.596Z,1.50
2023-02-14T11:45:01.844Z,2.70
2023-02-14T11:47:30.717Z,2.40
2023-02-14T11:50:03.006Z,2.30
2023-02-14T11:52:31.633Z,2.40
2023-02-14T11:54:59.957Z,7.50
2023-02-14T11:57:39.116Z,6.30
2023-02-14T12:00:14.925Z,21.40
2023-02-14T12:02:46.758Z,22.20
2023-02-14T12:05:19.374Z,6.10
2023-02-14T12:07:48.999Z,20.30
2023-02-14T12:10:17.379Z,14.60
2023-02-14T12:12:58.186Z,6.00
2023-02-14T12:15:42.411Z,5.20
2023-02-14T12:18:10.975Z,4.50
2023-02-14T12:20:42.697Z,3.50
2023-02-14T12:23:18.584Z,5.00
2023-02-14T12:25:50.190Z,4.80
2023-02-14T12:28:23.324Z,5.90
2023-02-14T12:30:51.842Z,3.40
2023-02-14T12:33:21.216Z,3.50
2023-02-14T12:35:49.591Z,9.60
2023-02-14T12:38:21.483Z,7.40
2023-02-14T12:41:12.619Z,7.50
2023-02-14T12:43:40.955Z,4.40
2023-02-14T12:46:19.489Z,6.40
2023-02-14T12:49:06.479Z,9.40
2023-02-14T12:51:37.976Z,6.60
2023-02-14T12:54:24.325Z,4.00
2023-02-14T12:56:54.314Z,40.90
2023-02-14T12:59:41.106Z,16.90
2023-02-14T13:02:29.680Z,17.10
2023-02-14T13:05:16.949Z,33.60
2023-02-14T13:07:55.032Z,13.10
2023-02-14T13:10:26.372Z,5.10
2023-02-14T13:13:01.506Z,5.60
2023-02-14T13:18:28.414Z,5.80
2023-02-14T13:20:58.353Z,2.80
2023-02-14T13:23:45.513Z,16.30
2023-02-14T13:26:20.851Z,29.80
2023-02-14T13:28:50.867Z,4.30
2023-02-14T13:31:19.719Z,2.70
2023-02-14T13:33:52.735Z,3.30
2023-02-14T13:36:21.823Z,6.30
2023-02-14T13:38:51.966Z,6.00
2023-02-14T13:41:20.489Z,7.00
2023-02-14T13:43:56.636Z,9.50
2023-02-14T13:46:34.170Z,11.90
2023-02-14T13:49:23.307Z,19.10
2023-02-14T13:51:52.561Z,17.20
2023-02-14T13:54:29.423Z,9.70
2023-02-14T13:56:58.302Z,8.10
2023-02-14T13:59:29.434Z,2.30
2023-02-14T14:02:17.783Z,2.70
2023-02-14T14:04:46.169Z,2.50
2023-02-14T14:07:16.123Z,2.60
2023-02-14T14:09:44.270Z,2.80
2023-02-14T14:12:23.339Z,19.90
2023-02-14T14:15:06.463Z,4.30
2023-02-14T14:17:47.446Z,12.90
2023-02-14T14:20:21.532Z,5.40
2023-02-14T14:22:50.874Z,16.60
2023-02-14T14:25:31.664Z,7.10
2023-02-14T14:28:00.415Z,3.60
2023-02-14T14:30:30.952Z,5.40
2023-02-14T14:33:18.276Z,7.40
2023-02-14T14:36:03.057Z,4.90
2023-02-14T14:38:31.933Z,14.40
2023-02-14T14:41:00.574Z,29.60
2023-02-14T14:46:28.421Z,30.30
2023-02-14T14:48:56.876Z,27.90
2023-02-14T14:51:26.660Z,43.80
2023-02-14T14:53:55.981Z,26.30
2023-02-14T14:56:28.010Z,26.70
2023-02-14T14:58:56.546Z,16.40
2023-02-14T15:01:31.149Z,13.40
2023-02-14T15:04:12.444Z,7.80
2023-02-14T15:06:41.186Z,4.30
2023-02-14T15:09:14.340Z,6.60
2023-02-14T15:12:01.986Z,6.40
2023-02-14T15:14:33.032Z,10.50
2023-02-14T15:17:05.570Z,6.50
2023-02-14T15:19:38.853Z,9.10
2023-02-14T15:22:07.806Z,10.20
2023-02-14T15:24:38.027Z,9.60
2023-02-14T15:27:06.880Z,9.40
2023-02-14T15:29:35.456Z,14.40
2023-02-14T15:32:04.484Z,21.60
2023-02-14T15:34:36.358Z,27.00
2023-02-14T15:37:06.668Z,34.60
2023-02-14T15:39:52.654Z,9.90
2023-02-14T15:42:32.777Z,6.80
2023-02-14T15:45:19.826Z,7.50
2023-02-14T15:47:49.425Z,25.50
2023-02-14T15:50:21.775Z,22.80
2023-02-14T15:52:50.103Z,5.30
2023-02-14T15:55:22.270Z,3.70
2023-02-14T15:57:54.935Z,3.70
2023-02-14T16:00:23.307Z,2.50
2023-02-14T16:02:52.810Z,2.40
2023-02-14T16:05:21.855Z,2.50
2023-02-14T16:08:00.503Z,2.20
2023-02-14T16:10:29.604Z,2.40
2023-02-14T16:13:00.998Z,2.60
2023-02-14T16:15:30.415Z,2.40
2023-02-14T16:17:59.134Z,2.30
2023-02-14T16:20:27.471Z,2.20
2023-02-14T16:23:14.648Z,2.40
2023-02-14T16:25:43.252Z,2.60
2023-02-14T16:28:12.069Z,4.60
2023-02-14T16:30:41.714Z,6.10
2023-02-14T16:33:14.222Z,4.60
2023-02-14T16:35:42.369Z,4.50
2023-02-14T16:38:17.492Z,3.20
2023-02-14T16:40:47.090Z,2.60
2023-02-14T16:43:16.156Z,2.40
2023-02-14T16:45:44.614Z,2.70
2023-02-14T16:48:15.904Z,2.70
2023-02-14T16:50:44.574Z,3.40
2023-02-14T16:53:32.979Z,3.00
2023-02-14T16:56:01.192Z,3.40
2023-02-14T16:58:32.728Z,7.30
2023-02-14T17:01:01.190Z,26.40
2023-02-14T17:03:29.759Z,14.50
2023-02-14T17:05:58.516Z,12.50
2023-02-14T17:08:26.742Z,13.90
2023-02-14T17:10:56.825Z,11.20
2023-02-14T17:13:25.522Z,11.50
2023-02-14T17:15:54.935Z,9.60
2023-02-14T17:18:23.549Z,12.00
2023-02-14T17:20:52.880Z,34.30
2023-02-14T17:23:21.628Z,23.70
2023-02-14T17:25:50.830Z,63.40
2023-02-14T17:28:19.680Z,48.10
2023-02-14T17:30:48.272Z,68.00
2023-02-14T17:33:17.255Z,69.60
2023-02-14T17:35:45.555Z,43.40
2023-02-14T17:38:14.685Z,66.40
2023-02-14T17:40:43.061Z,24.70
2023-02-14T17:43:12.005Z,8.50
2023-02-14T17:45:40.427Z,7.20
2023-02-14T17:50:54.723Z,3.10
2023-02-14T17:53:23.322Z,2.70
2023-02-14T17:55:52.393Z,2.10
2023-02-14T17:58:20.823Z,2.00
2023-02-14T18:00:50.083Z,2.10
2023-02-14T18:03:20.420Z,3.00
2023-02-14T18:05:48.528Z,2.70
2023-02-14T18:08:19.956Z,2.10
2023-02-14T18:10:52.464Z,2.50
2023-02-14T18:13:20.554Z,2.20
2023-02-14T18:15:48.826Z,3.60
2023-02-14T18:18:21.810Z,3.00
2023-02-14T18:20:54.456Z,4.40
2023-02-14T18:23:23.629Z,4.00
2023-02-14T18:25:55.206Z,6.80
2023-02-14T18:28:24.713Z,9.40
2023-02-14T18:30:53.509Z,12.20
2023-02-14T18:33:23.716Z,33.50
2023-02-14T18:35:53.877Z,27.90
2023-02-14T18:38:22.680Z,14.40
2023-02-14T18:40:51.619Z,10.20
2023-02-14T18:43:20.600Z,8.20
2023-02-14T18:45:49.389Z,9.10
2023-02-14T18:48:18.339Z,10.40
2023-02-14T18:50:46.794Z,2.70
2023-02-14T18:53:15.828Z,2.40
2023-02-14T18:55:44.782Z,2.40
2023-02-14T18:58:13.765Z,2.10
2023-02-14T19:00:42.852Z,2.20
2023-02-14T19:03:12.061Z,2.80
2023-02-14T19:05:42.447Z,2.90
2023-02-14T19:08:11.895Z,2.60
2023-02-14T19:10:40.134Z,2.50
2023-02-14T19:13:10.407Z,2.30
2023-02-14T19:15:39.217Z,2.00
2023-02-14T19:18:11.767Z,2.40
2023-02-14T19:20:40.445Z,1.90
2023-02-14T19:23:08.812Z,1.90
2023-02-14T19:25:38.423Z,2.30
2023-02-14T19:28:07.247Z,2.50
2023-02-14T19:30:39.629Z,8.90
2023-02-14T19:33:07.928Z,4.40
2023-02-14T19:35:36.394Z,2.80
2023-02-14T19:38:05.758Z,2.10
2023-02-14T19:40:36.837Z,2.20
2023-02-14T19:43:05.856Z,2.40
2023-02-14T19:45:34.314Z,2.00
2023-02-14T19:48:03.876Z,2.00
2023-02-14T19:50:34.153Z,2.20
2023-02-14T19:53:02.812Z,5.30
2023-02-14T19:55:32.070Z,4.10
2023-02-14T19:58:00.327Z,3.80
2023-02-14T20:00:29.013Z,3.30
2023-02-14T20:02:59.977Z,2.40
2023-02-14T20:05:30.305Z,2.60
2023-02-14T20:07:59.633Z,2.50
2023-02-14T20:10:27.901Z,2.80
2023-02-14T20:12:56.994Z,2.40
2023-02-14T20:15:26.631Z,3.00
2023-02-14T20:17:55.793Z,2.50
2023-02-14T20:20:24.512Z,2.00
2023-02-14T20:22:53.670Z,2.10
2023-02-14T20:25:22.244Z,2.40
2023-02-14T20:27:53.316Z,3.20
2023-02-14T20:30:22.758Z,3.00
2023-02-14T20:32:51.822Z,2.30
2023-02-14T20:35:20.248Z,2.60
2023-02-14T20:37:49.630Z,2.30
2023-02-14T20:40:19.563Z,2.20
2023-02-14T20:42:48.922Z,2.30
2023-02-14T20:45:17.301Z,2.00
2023-02-14T20:47:48.071Z,1.90
2023-02-14T20:50:16.286Z,1.40
2023-02-14T20:52:44.504Z,2.40
2023-02-14T20:55:13.727Z,2.00
2023-02-14T20:57:42.513Z,2.00
2023-02-14T21:00:10.844Z,2.30
2023-02-14T21:02:40.003Z,2.20
2023-02-14T21:05:08.315Z,2.60
2023-02-14T21:07:36.898Z,1.60
2023-02-14T21:10:07.323Z,1.30
2023-02-14T21:12:35.506Z,1.70
2023-02-14T21:17:39.857Z,1.60
2023-02-14T21:20:10.743Z,1.20
2023-02-14T21:22:41.017Z,1.90
2023-02-14T21:25:09.598Z,1.60
2023-02-14T21:27:39.163Z,1.40
2023-02-14T21:30:07.752Z,1.90
2023-02-14T21:32:36.387Z,2.00
2023-02-14T21:35:05.580Z,1.90
2023-02-14T21:37:34.397Z,2.00
2023-02-14T21:40:03.409Z,1.70
2023-02-14T21:42:32.254Z,1.40
2023-02-14T21:45:19.101Z,1.40
2023-02-14T21:48:07.341Z,1.30
2023-02-14T21:50:36.956Z,1.30
2023-02-14T21:53:07.662Z,1.30
2023-02-14T21:55:38.591Z,1.40
2023-02-14T21:58:07.247Z,1.00
2023-02-14T22:00:35.899Z,1.30
2023-02-14T22:03:04.964Z,1.50
2023-02-14T22:05:33.571Z,1.30
2023-02-14T22:08:01.661Z,1.50
2023-02-14T22:10:29.936Z,1.50
2023-02-14T22:12:58.433Z,1.20
2023-02-14T22:15:31.529Z,1.10
2023-02-14T22:17:59.784Z,1.40
2023-02-14T22:20:27.884Z,1.30
2023-02-14T22:22:56.368Z,1.60
2023-02-14T22:25:25.218Z,1.50
2023-02-14T22:27:54.243Z,1.30
2023-02-14T22:30:24.520Z,1.50
2023-02-14T22:32:54.001Z,1.30
2023-02-14T22:35:22.158Z,1.40
2023-02-14T22:37:50.434Z,1.20
2023-02-14T22:40:18.796Z,1.20
2023-02-14T22:42:46.980Z,1.60
2023-02-14T22:45:15.299Z,1.50
2023-02-14T22:47:44.431Z,1.60
2023-02-14T22:50:12.694Z,1.20
2023-02-14T22:52:40.830Z,1.30
2023-02-14T22:55:10.427Z,1.40
2023-02-14T22:57:39.366Z,1.80
2023-02-14T23:00:11.749Z,1.30
2023-02-14T23:02:41.461Z,1.50
2023-02-14T23:05:09.846Z,1.80
2023-02-14T23:07:38.532Z,1.50
2023-02-14T23:10:07.804Z,1.30
2023-02-14T23:12:55.719Z,2.20
2023-02-14T23:15:42.886Z,2.10
2023-02-14T23:18:30.876Z,1.80
2023-02-14T23:21:18.016Z,1.40
2023-02-14T23:23:46.319Z,1.40
2023-02-14T23:26:18.658Z,1.60
2023-02-14T23:28:47.691Z,1.50
2023-02-14T23:31:15.979Z,1.40
2023-02-14T23:33:44.356Z,1.50
2023-02-14T23:36:13.145Z,1.10
2023-02-14T23:38:41.261Z,1.60
2023-02-14T23:41:28.963Z,1.30
2023-02-14T23:43:57.217Z,1.30
2023-02-14T23:46:25.998Z,1.20
2023-02-14T23:48:55.285Z,1.40
2023-02-14T23:51:23.593Z,1.90
2023-02-14T23:53:55.406Z,1.60
2023-02-14T23:56:24.332Z,1.70
2023-02-14T23:58:52.442Z,1.60
